Latest Weather Observations for Busselton Jetty

IDW60801

Issued at 6:35 am WST Friday 21 November 2014 (issued every 30 minutes, with the page automatically refreshed every 10 minutes)

About weather observations | Map of weather stations | Latest weather observations for WA | Other Formats
Station Details ID: 009937 Name: BUSSELTON JETTY Lat: -33.63 Lon: 115.34 Height: 3.0 m
Data from the previous 72 hours. | See also: Recent months for locations in Western Australia
Date/Time
WST
Temp
°C
App
Temp
°C
Dew
Point
Rel
Hum
%
Delta-T
°C
Wind Press
QNH
hPa
Press
MSL
hPa
Rain
since 9 am
mm
Dir
 
Spd
km/h
Gust
km/h
Spd
kts
Gust
kts
21/06:30am - - - - - WNW 26 30 14 16 - - -
21/06:00am - - - - - WNW 30 33 16 18 - - -
21/05:30am - - - - - WNW 32 35 17 19 - - -
21/05:00am - - - - - W 30 33 16 18 - - -
21/04:30am - - - - - W 28 33 15 18 - - -
21/04:00am - - - - - W 28 32 15 17 - - -
21/03:30am - - - - - WNW 22 30 12 16 - - -
21/03:00am - - - - - W 24 30 13 16 - - -
21/02:30am - - - - - WNW 30 33 16 18 - - -
21/02:00am - - - - - WNW 35 41 19 22 - - -
21/01:30am - - - - - NW 35 43 19 23 - - -
21/01:00am - - - - - NW 30 33 16 18 - - -
21/12:52am - - - - - NW 39 57 21 31 - - -
21/12:30am - - - - - NW 43 52 23 28 - - -
21/12:00am - - - - - NW 39 46 21 25 - - -
 
Date/Time
WST
Temp
°C
App
Temp
°C
Dew
Point
Rel
Hum
%
Delta-T
°C
Wind Press
QNH
hPa
Press
MSL
hPa
Rain
since 9 am
mm
Dir
 
Spd
km/h
Gust
km/h
Spd
kts
Gust
kts
20/11:30pm - - - - - NW 41 48 22 26 - - -
20/11:00pm - - - - - NW 41 48 22 26 - - -
20/10:30pm - - - - - NW 39 43 21 23 - - -
20/10:00pm - - - - - NW 37 43 20 23 - - -
20/09:30pm - - - - - NW 39 44 21 24 - - -
20/09:00pm - - - - - NW 35 41 19 22 - - -
20/08:30pm - - - - - NW 33 39 18 21 - - -
20/08:00pm - - - - - NW 32 37 17 20 - - -
20/07:30pm - - - - - NW 35 41 19 22 - - -
20/07:00pm - - - - - NW 35 41 19 22 - - -
20/06:30pm - - - - - NW 37 41 20 22 - - -
20/06:00pm - - - - - NW 39 43 21 23 - - -
20/05:30pm - - - - - NW 37 43 20 23 - - -
20/05:00pm - - - - - NW 39 48 21 26 - - -
20/04:30pm - - - - - NNW 41 50 22 27 - - -
20/04:00pm - - - - - NNW 41 50 22 27 - - -
20/03:30pm - - - - - NNW 39 48 21 26 - - -
20/03:00pm - - - - - NNW 39 46 21 25 - - -
20/02:30pm - - - - - NW 43 50 23 27 - - -
20/02:00pm - - - - - NNW 44 52 24 28 - - -
20/01:30pm - - - - - NNW 41 52 22 28 - - -
20/01:00pm - - - - - NW 37 46 20 25 - - -
20/12:30pm - - - - - NNW 39 46 21 25 - - -
20/12:00pm - - - - - NW 37 43 20 23 - - -
20/11:30am - - - - - NW 39 48 21 26 - - -
20/11:00am - - - - - NNW 41 48 22 26 - - -
20/10:30am - - - - - NW 39 46 21 25 - - -
20/10:00am - - - - - NW 39 48 21 26 - - -
20/09:30am - - - - - NW 41 48 22 26 - - -
20/09:00am - - - - - NW 39 44 21 24 - - -
20/08:30am - - - - - WNW 39 46 21 25 - - -
20/08:00am - - - - - WNW 46 56 25 30 - - -
20/07:30am - - - - - NW 44 52 24 28 - - -
20/07:00am - - - - - NNW 39 48 21 26 - - -
20/06:30am - - - - - N 35 43 19 23 - - -
20/06:00am - - - - - N 33 41 18 22 - - -
20/05:30am - - - - - N 33 39 18 21 - - -
20/05:00am - - - - - NNW 33 37 18 20 - - -
20/04:30am - - - - - NNW 30 33 16 18 - - -
20/04:00am - - - - - NNW 30 33 16 18 - - -
20/03:30am - - - - - N 30 33 16 18 - - -
20/03:00am - - - - - N 30 33 16 18 - - -
20/02:30am - - - - - N 30 33 16 18 - - -
20/02:00am - - - - - N 24 30 13 16 - - -
20/01:30am - - - - - NNW 28 30 15 16 - - -
20/01:00am - - - - - NNW 28 32 15 17 - - -
20/12:30am - - - - - NNW 24 30 13 16 - - -
20/12:00am - - - - - N 28 32 15 17 - - -
 
Date/Time
WST
Temp
°C
App
Temp
°C
Dew
Point
Rel
Hum
%
Delta-T
°C
Wind Press
QNH
hPa
Press
MSL
hPa
Rain
since 9 am
mm
Dir
 
Spd
km/h
Gust
km/h
Spd
kts
Gust
kts
19/11:30pm - - - - - N 26 30 14 16 - - -
19/11:00pm - - - - - N 22 28 12 15 - - -
19/10:30pm - - - - - N 19 22 10 12 - - -
19/10:00pm - - - - - N 17 20 9 11 - - -
19/09:30pm - - - - - N 13 17 7 9 - - -
19/09:00pm - - - - - NNW 13 15 7 8 - - -
19/08:30pm - - - - - NNW 13 15 7 8 - - -
19/08:00pm - - - - - WNW 13 15 7 8 - - -
19/07:30pm - - - - - WNW 17 19 9 10 - - -
19/07:00pm - - - - - WNW 17 20 9 11 - - -
19/06:30pm - - - - - NW 19 22 10 12 - - -
19/06:00pm - - - - - NW 19 22 10 12 - - -
19/05:30pm - - - - - WNW 24 28 13 15 - - -
19/05:00pm - - - - - WNW 20 26 11 14 - - -
19/04:30pm - - - - - WNW 26 30 14 16 - - -
19/04:00pm - - - - - NW 30 33 16 18 - - -
19/03:30pm - - - - - NNW 28 32 15 17 - - -
19/03:00pm - - - - - NNW 28 32 15 17 - - -
19/02:30pm - - - - - NNW 28 32 15 17 - - -
19/02:00pm - - - - - NW 24 30 13 16 - - -
19/01:30pm - - - - - NW 32 33 17 18 - - -
19/01:00pm - - - - - NNW 22 28 12 15 - - -
19/12:30pm - - - - - NW 22 26 12 14 - - -
19/12:00pm - - - - - N 22 26 12 14 - - -
19/11:30am - - - - - N 22 26 12 14 - - -
19/11:00am - - - - - N 20 24 11 13 - - -
19/10:30am - - - - - N 17 20 9 11 - - -
19/10:00am - - - - - N 15 20 8 11 - - -
19/09:30am - - - - - NNE 13 15 7 8 - - -
19/09:00am - - - - - N 11 13 6 7 - - -
19/08:30am - - - - - NE 9 13 5 7 - - -
19/08:00am - - - - - ENE 9 11 5 6 - - -
19/07:30am - - - - - ESE 7 9 4 5 - - -
19/07:00am - - - - - ESE 7 9 4 5 - - -
19/06:30am - - - - - SW 6 9 3 5 - - -
19/06:00am - - - - - SSW 7 9 4 5 - - -
19/05:30am - - - - - SSW 9 11 5 6 - - -
19/05:00am - - - - - SW 13 15 7 8 - - -
19/04:30am - - - - - SW 15 15 8 8 - - -
19/04:00am - - - - - SW 11 13 6 7 - - -
19/03:30am - - - - - SW 11 13 6 7 - - -
19/03:00am - - - - - SW 7 9 4 5 - - -
19/02:30am - - - - - WSW 9 9 5 5 - - -
19/02:00am - - - - - SW 11 13 6 7 - - -
19/01:30am - - - - - WSW 9 11 5 6 - - -
19/01:00am - - - - - WSW 13 15 7 8 - - -
19/12:30am - - - - - WSW 13 17 7 9 - - -
19/12:00am - - - - - SSW 9 13 5 7 - - -
 
Date/Time
WST
Temp
°C
App
Temp
°C
Dew
Point
Rel
Hum
%
Delta-T
°C
Wind Press
QNH
hPa
Press
MSL
hPa
Rain
since 9 am
mm
Dir
 
Spd
km/h
Gust
km/h
Spd
kts
Gust
kts
18/11:30pm - - - - - WSW 9 11 5 6 - - -
18/11:00pm - - - - - SW 11 11 6 6 - - -
18/10:30pm - - - - - SSW 11 13 6 7 - - -
18/10:00pm - - - - - SSW 11 15 6 8 - - -
18/09:30pm - - - - - SW 17 22 9 12 - - -
18/09:00pm - - - - - WSW 13 17 7 9 - - -
18/08:30pm - - - - - SW 15 17 8 9 - - -
18/08:00pm - - - - - WSW 15 19 8 10 - - -
18/07:30pm - - - - - WSW 15 17 8 9 - - -
18/07:00pm - - - - - SW 19 24 10 13 - - -
18/06:30pm - - - - - WSW 28 33 15 18 - - -
18/06:00pm - - - - - WSW 30 37 16 20 - - -
18/05:30pm - - - - - SW 32 39 17 21 - - -
18/05:00pm - - - - - WSW 30 39 16 21 - - -
18/04:30pm - - - - - SW 32 37 17 20 - - -
18/04:00pm - - - - - SW 33 41 18 22 - - -
18/03:41pm - - - - - SSW 32 39 17 21 - - -
18/03:30pm - - - - - WSW 39 48 21 26 - - -
18/03:00pm - - - - - SW 35 43 19 23 - - -
18/02:30pm - - - - - SW 32 37 17 20 - - -
18/02:00pm - - - - - SW 32 37 17 20 - - -
18/01:30pm - - - - - SSW 26 33 14 18 - - -
18/01:00pm - - - - - WSW 20 24 11 13 - - -
18/12:30pm - - - - - NNW 13 17 7 9 - - -
18/12:00pm - - - - - NW 15 17 8 9 - - -
18/11:30am - - - - - WSW 19 24 10 13 - - -
18/11:00am - - - - - SSW 17 24 9 13 - - -
18/10:30am - - - - - S 9 13 5 7 - - -
18/10:00am - - - - - S 6 13 3 7 - - -
18/09:30am - - - - - S 4 11 2 6 - - -
18/09:00am - - - - - WSW 11 15 6 8 - - -
18/08:30am - - - - - WSW 11 13 6 7 - - -
18/08:00am - - - - - SSW 11 13 6 7 - - -
18/07:30am - - - - - SSW 9 13 5 7 - - -
18/07:00am - - - - - S 9 11 5 6 - - -

Other Formats:

Comma delimited format used in spreadsheet applications
http://www.bom.gov.au/fwo/IDW60801/IDW60801.95602.axf

JavaScript Object Notation format (JSON) in row-major order
http://www.bom.gov.au/fwo/IDW60801/IDW60801.95602.json